createdAt,value
2018-08-16T00:00:32.977Z,15.50
2018-08-16T00:03:01.906Z,15.50
2018-08-16T00:05:34.315Z,15.40
2018-08-16T00:08:04.197Z,15.50
2018-08-16T00:10:32.900Z,15.50
2018-08-16T00:13:01.688Z,15.40
2018-08-16T00:15:30.395Z,15.40
2018-08-16T00:17:59.180Z,15.30
2018-08-16T00:20:27.909Z,15.30
2018-08-16T00:22:56.745Z,15.30
2018-08-16T00:25:25.531Z,15.30
2018-08-16T00:27:54.405Z,15.20
2018-08-16T00:30:23.353Z,15.30
2018-08-16T00:32:52.086Z,15.20
2018-08-16T00:35:20.737Z,15.20
2018-08-16T00:37:49.962Z,15.20
2018-08-16T00:40:19.150Z,15.10
2018-08-16T00:42:47.970Z,15.00
2018-08-16T00:45:16.722Z,15.00
2018-08-16T00:47:45.584Z,15.10
2018-08-16T00:50:15.580Z,15.10
2018-08-16T00:52:44.272Z,15.00
2018-08-16T00:55:13.874Z,15.10
2018-08-16T00:57:42.647Z,15.00
2018-08-16T01:00:20.282Z,14.90
2018-08-16T01:02:49.166Z,14.90
2018-08-16T01:05:18.300Z,14.80
2018-08-16T01:07:47.091Z,14.80
2018-08-16T01:10:15.804Z,14.80
2018-08-16T01:12:44.971Z,14.80
2018-08-16T01:15:15.614Z,14.90
2018-08-16T01:17:44.427Z,14.90
2018-08-16T01:20:13.295Z,14.90
2018-08-16T01:22:42.224Z,14.90
2018-08-16T01:25:11.959Z,14.90
2018-08-16T01:27:40.709Z,15.00
2018-08-16T01:30:10.577Z,15.00
2018-08-16T01:32:39.302Z,15.00
2018-08-16T01:35:08.898Z,15.00
2018-08-16T01:37:37.859Z,15.00
2018-08-16T01:40:07.713Z,14.90
2018-08-16T01:42:37.011Z,14.80
2018-08-16T01:45:05.869Z,14.80
2018-08-16T01:47:34.640Z,14.70
2018-08-16T01:50:03.406Z,14.70
2018-08-16T01:52:32.174Z,14.70
2018-08-16T01:55:01.033Z,14.70
2018-08-16T01:57:29.817Z,14.70
2018-08-16T01:59:58.696Z,14.60
2018-08-16T02:02:27.512Z,14.60
2018-08-16T02:04:56.641Z,14.60
2018-08-16T02:07:25.777Z,14.60
2018-08-16T02:09:54.581Z,14.50
2018-08-16T02:12:23.289Z,14.50
2018-08-16T02:14:52.108Z,14.60
2018-08-16T02:17:20.913Z,14.50
2018-08-16T02:19:49.713Z,14.50
2018-08-16T02:22:18.472Z,14.40
2018-08-16T02:24:47.219Z,14.40
2018-08-16T02:27:15.985Z,14.30
2018-08-16T02:29:44.772Z,14.30
2018-08-16T02:32:14.823Z,14.30
2018-08-16T02:34:43.748Z,14.30
2018-08-16T02:37:12.518Z,14.20
2018-08-16T02:39:41.225Z,14.20
2018-08-16T02:42:09.906Z,14.20
2018-08-16T02:44:38.689Z,14.20
2018-08-16T02:47:07.498Z,14.10
2018-08-16T02:49:36.355Z,14.10
2018-08-16T02:52:05.237Z,14.10
2018-08-16T02:54:34.038Z,14.00
2018-08-16T02:57:03.491Z,14.00
2018-08-16T02:59:32.241Z,14.00
2018-08-16T03:02:00.896Z,14.00
2018-08-16T03:04:29.956Z,13.90
2018-08-16T03:06:58.778Z,13.90
2018-08-16T03:09:27.665Z,14.00
2018-08-16T03:11:56.813Z,14.00
2018-08-16T03:14:25.770Z,14.00
2018-08-16T03:16:54.477Z,13.90
2018-08-16T03:19:23.286Z,13.90
2018-08-16T03:21:52.105Z,13.90
2018-08-16T03:24:20.846Z,13.80
2018-08-16T03:26:49.796Z,13.80
2018-08-16T03:29:19.005Z,13.60
2018-08-16T03:31:48.422Z,13.60
2018-08-16T03:34:17.141Z,13.60
2018-08-16T03:36:45.902Z,13.60
2018-08-16T03:39:14.692Z,13.60
2018-08-16T03:41:43.504Z,13.60
2018-08-16T03:44:12.208Z,13.60
2018-08-16T03:46:41.234Z,13.50
2018-08-16T03:49:09.950Z,13.50
2018-08-16T03:51:38.781Z,13.50
2018-08-16T03:54:07.613Z,13.50
2018-08-16T03:56:36.743Z,13.50
2018-08-16T03:59:05.579Z,13.50
2018-08-16T04:01:34.398Z,13.50
2018-08-16T04:04:03.607Z,13.50
2018-08-16T04:06:32.457Z,13.50
2018-08-16T04:09:01.205Z,13.50
2018-08-16T04:11:29.949Z,13.50
2018-08-16T04:13:58.673Z,13.50
2018-08-16T04:16:27.495Z,13.50
2018-08-16T04:18:56.249Z,13.50
2018-08-16T04:21:25.539Z,13.50
2018-08-16T04:23:54.585Z,13.50
2018-08-16T04:26:23.413Z,13.50
2018-08-16T04:28:52.195Z,13.50
2018-08-16T04:31:20.943Z,13.50
2018-08-16T04:33:49.776Z,13.50
2018-08-16T04:36:18.473Z,13.50
2018-08-16T04:38:47.233Z,13.60
2018-08-16T04:41:16.030Z,13.60
2018-08-16T04:43:44.786Z,13.60
2018-08-16T04:46:13.307Z,13.60
2018-08-16T04:48:42.312Z,13.60
2018-08-16T04:51:11.184Z,13.60
2018-08-16T04:53:39.896Z,13.70
2018-08-16T04:56:08.764Z,13.70
2018-08-16T04:58:37.573Z,13.80
2018-08-16T05:01:06.442Z,13.90
2018-08-16T05:03:35.552Z,14.00
2018-08-16T05:06:04.337Z,14.10
2018-08-16T05:08:33.031Z,14.20
2018-08-16T05:11:01.874Z,14.30
2018-08-16T05:13:30.754Z,14.40
2018-08-16T05:15:59.600Z,14.50
2018-08-16T05:18:28.545Z,14.60
2018-08-16T05:20:57.331Z,14.70
2018-08-16T05:23:26.065Z,14.90
2018-08-16T05:25:55.114Z,15.00
2018-08-16T05:28:23.890Z,15.20
2018-08-16T05:30:53.349Z,15.30
2018-08-16T05:33:22.497Z,15.40
2018-08-16T05:35:51.573Z,15.50
2018-08-16T05:38:20.269Z,15.70
2018-08-16T05:40:49.213Z,15.80
2018-08-16T05:43:18.362Z,15.90
2018-08-16T05:45:47.308Z,16.10
2018-08-16T05:48:16.169Z,16.30
2018-08-16T05:50:45.010Z,16.40
2018-08-16T05:53:13.978Z,16.60
2018-08-16T05:55:42.778Z,16.70
2018-08-16T05:58:11.522Z,16.70
2018-08-16T06:00:40.348Z,16.90
2018-08-16T06:03:09.331Z,17.10
2018-08-16T06:05:38.487Z,17.20
2018-08-16T06:08:07.907Z,17.40
2018-08-16T06:10:36.780Z,17.60
2018-08-16T06:13:06.026Z,17.70
2018-08-16T06:15:34.859Z,17.90
2018-08-16T06:18:03.889Z,18.10
2018-08-16T06:20:32.714Z,18.20
2018-08-16T06:23:01.473Z,18.30
2018-08-16T06:25:30.607Z,18.40
2018-08-16T06:27:59.365Z,18.50
2018-08-16T06:30:28.521Z,18.70
2018-08-16T06:32:57.658Z,18.90
2018-08-16T06:35:26.371Z,19.20
2018-08-16T06:37:55.146Z,19.50
2018-08-16T06:40:24.018Z,19.80
2018-08-16T06:42:52.653Z,19.80
2018-08-16T06:45:21.594Z,20.00
2018-08-16T06:47:50.409Z,20.10
2018-08-16T06:50:19.122Z,20.30
2018-08-16T06:52:48.377Z,20.20
2018-08-16T06:55:17.710Z,20.30
2018-08-16T06:57:46.817Z,20.30
2018-08-16T07:00:15.522Z,20.40
2018-08-16T07:02:44.298Z,20.50
2018-08-16T07:05:12.889Z,20.60
2018-08-16T07:07:41.396Z,20.60
2018-08-16T07:10:11.622Z,20.80
2018-08-16T07:12:40.349Z,21.00
2018-08-16T07:15:11.974Z,21.20
2018-08-16T07:17:41.269Z,21.30
2018-08-16T07:20:10.201Z,21.40
2018-08-16T07:22:38.942Z,21.50
2018-08-16T07:25:08.620Z,21.40
2018-08-16T07:27:37.447Z,21.20
2018-08-16T07:30:08.099Z,21.20
2018-08-16T07:32:38.080Z,21.70
2018-08-16T07:35:07.197Z,22.00
2018-08-16T07:37:36.334Z,22.20
2018-08-16T07:40:05.696Z,22.40
2018-08-16T07:42:34.756Z,22.50
2018-08-16T07:45:03.347Z,22.70
2018-08-16T07:47:32.046Z,23.10
2018-08-16T07:50:01.288Z,22.30
2018-08-16T07:52:30.114Z,22.80
2018-08-16T07:54:58.929Z,22.50
2018-08-16T07:57:27.667Z,22.00
2018-08-16T07:59:56.546Z,22.30
2018-08-16T08:02:25.054Z,23.00
2018-08-16T08:04:53.826Z,23.30
2018-08-16T08:07:23.128Z,22.80
2018-08-16T08:09:51.811Z,23.10
2018-08-16T08:12:20.780Z,23.60
2018-08-16T08:14:49.606Z,23.50
2018-08-16T08:17:18.383Z,22.20
2018-08-16T08:19:47.440Z,21.20
2018-08-16T08:22:15.937Z,20.90
2018-08-16T08:24:45.288Z,21.60
2018-08-16T08:27:14.481Z,22.10
2018-08-16T08:29:43.248Z,22.30
2018-08-16T08:32:12.030Z,22.30
2018-08-16T08:34:40.827Z,22.90
2018-08-16T08:37:20.469Z,23.80
2018-08-16T08:39:49.096Z,24.00
2018-08-16T08:42:17.827Z,24.10
2018-08-16T08:44:46.333Z,24.80
2018-08-16T08:47:15.785Z,25.10
2018-08-16T08:49:44.897Z,24.00
2018-08-16T08:52:13.666Z,24.70
2018-08-16T08:55:57.154Z,25.20
2018-08-16T08:58:38.753Z,25.50
2018-08-16T09:01:08.042Z,25.00
2018-08-16T09:03:36.814Z,24.60
2018-08-16T09:06:06.057Z,24.90
2018-08-16T09:08:34.696Z,25.10
2018-08-16T09:11:16.649Z,25.00
2018-08-16T09:13:58.690Z,24.90
2018-08-16T09:16:33.026Z,25.00
2018-08-16T09:19:02.297Z,25.20
2018-08-16T09:21:31.436Z,25.40
2018-08-16T09:24:00.367Z,25.30
2018-08-16T09:26:34.802Z,24.90
2018-08-16T09:31:11.444Z,25.30
2018-08-16T09:33:51.307Z,25.40
2018-08-16T09:36:19.917Z,25.90
2018-08-16T09:38:49.277Z,25.50
2018-08-16T09:41:18.058Z,25.60
2018-08-16T09:43:46.811Z,25.90
2018-08-16T09:46:54.042Z,25.80
2018-08-16T09:49:22.849Z,26.00
2018-08-16T09:51:51.690Z,25.70
2018-08-16T09:54:20.446Z,25.80
2018-08-16T09:56:49.488Z,26.20
2018-08-16T09:59:19.047Z,26.70
2018-08-16T10:01:47.779Z,27.00
2018-08-16T10:04:16.634Z,24.90
2018-08-16T10:06:45.858Z,25.30
2018-08-16T10:09:17.338Z,26.00
2018-08-16T10:11:46.727Z,26.30
2018-08-16T10:14:16.694Z,26.60
2018-08-16T10:16:45.318Z,26.90
2018-08-16T10:19:14.033Z,26.40
2018-08-16T10:21:42.886Z,25.20
2018-08-16T10:24:12.009Z,25.90
2018-08-16T10:26:40.798Z,26.10
2018-08-16T10:29:10.114Z,25.50
2018-08-16T10:31:39.017Z,26.40
2018-08-16T10:34:07.982Z,27.60
2018-08-16T10:36:36.840Z,26.40
2018-08-16T10:39:15.471Z,27.00
2018-08-16T10:41:44.210Z,26.10
2018-08-16T10:44:15.343Z,26.90
2018-08-16T10:46:44.182Z,27.90
2018-08-16T10:49:13.224Z,27.10
2018-08-16T10:51:41.985Z,27.60
2018-08-16T10:54:10.748Z,27.40
2018-08-16T10:56:39.459Z,27.60
2018-08-16T10:59:08.286Z,28.60
2018-08-16T11:01:37.062Z,29.40
2018-08-16T11:04:06.040Z,29.20
2018-08-16T11:06:35.125Z,27.70
2018-08-16T11:09:06.606Z,28.50
2018-08-16T11:11:35.859Z,29.40
2018-08-16T11:14:05.480Z,27.50
2018-08-16T11:16:34.441Z,26.90
2018-08-16T11:19:03.152Z,26.20
2018-08-16T11:21:31.870Z,27.00
2018-08-16T11:24:00.627Z,27.50
2018-08-16T11:26:29.489Z,27.60
2018-08-16T11:28:58.158Z,28.10
2018-08-16T11:31:27.276Z,28.70
2018-08-16T11:33:56.314Z,29.60
2018-08-16T11:36:24.902Z,30.10
2018-08-16T11:38:54.062Z,29.30
2018-08-16T11:41:22.968Z,29.90
2018-08-16T11:43:51.889Z,29.70
2018-08-16T11:46:20.949Z,28.30
2018-08-16T11:48:49.710Z,28.00
2018-08-16T11:51:18.559Z,27.10
2018-08-16T11:53:47.501Z,27.80
2018-08-16T11:56:16.607Z,29.00
2018-08-16T11:58:45.617Z,29.60
2018-08-16T12:01:14.350Z,29.80
2018-08-16T12:03:43.034Z,27.80
2018-08-16T12:06:12.289Z,27.90
2018-08-16T12:08:41.409Z,28.10
2018-08-16T12:11:10.238Z,28.10
2018-08-16T12:13:38.941Z,29.40
2018-08-16T12:16:07.698Z,29.90
2018-08-16T12:18:36.897Z,30.40
2018-08-16T12:21:05.731Z,30.70
2018-08-16T12:23:34.636Z,30.90
2018-08-16T12:26:03.734Z,30.50
2018-08-16T12:28:32.429Z,29.10
2018-08-16T12:31:01.321Z,28.50
2018-08-16T12:33:30.165Z,27.90
2018-08-16T12:35:59.041Z,29.10
2018-08-16T12:38:27.853Z,30.10
2018-08-16T12:40:56.523Z,29.60
2018-08-16T12:43:30.846Z,30.20
2018-08-16T12:45:59.582Z,30.00
2018-08-16T12:48:28.450Z,30.80
2018-08-16T12:50:57.265Z,30.70
2018-08-16T12:53:26.528Z,31.20
2018-08-16T12:55:55.932Z,30.70
2018-08-16T12:58:24.645Z,29.30
2018-08-16T13:00:53.412Z,29.70
2018-08-16T13:03:22.333Z,30.70
2018-08-16T13:05:51.535Z,31.00
2018-08-16T13:08:20.518Z,29.80
2018-08-16T13:10:49.290Z,30.50
2018-08-16T13:13:18.051Z,30.70
2018-08-16T13:15:46.818Z,29.30
2018-08-16T13:18:15.605Z,28.80
2018-08-16T13:20:44.201Z,29.10
2018-08-16T13:23:13.062Z,30.00
2018-08-16T13:25:41.870Z,29.90
2018-08-16T13:28:10.590Z,30.40
2018-08-16T13:30:39.349Z,30.50
2018-08-16T13:33:08.117Z,31.10
2018-08-16T13:35:36.872Z,30.50
2018-08-16T13:38:05.965Z,30.50
2018-08-16T13:40:34.801Z,31.20
2018-08-16T13:43:03.832Z,29.90
2018-08-16T13:45:32.570Z,29.20
2018-08-16T13:48:01.737Z,28.30
2018-08-16T13:50:30.606Z,28.10
2018-08-16T13:52:59.263Z,29.10
2018-08-16T13:55:28.088Z,29.70
2018-08-16T13:57:57.579Z,29.90
2018-08-16T14:00:26.248Z,29.90
2018-08-16T14:02:55.045Z,29.00
2018-08-16T14:05:24.102Z,28.00
2018-08-16T14:07:52.797Z,28.00
2018-08-16T14:10:21.540Z,28.40
2018-08-16T14:12:52.053Z,28.30
2018-08-16T14:15:20.833Z,28.70
2018-08-16T14:17:49.503Z,28.80
2018-08-16T14:20:18.625Z,29.30
2018-08-16T14:22:47.358Z,29.40
2018-08-16T14:25:16.168Z,29.10
2018-08-16T14:27:45.155Z,29.20
2018-08-16T14:30:13.989Z,29.50
2018-08-16T14:32:42.733Z,29.30
2018-08-16T14:35:11.535Z,29.40
2018-08-16T14:37:40.169Z,29.10
2018-08-16T14:40:09.360Z,29.20
2018-08-16T14:42:38.089Z,28.50
2018-08-16T14:45:07.402Z,28.70
2018-08-16T14:47:36.115Z,29.10
2018-08-16T14:50:05.736Z,28.30
2018-08-16T14:52:34.473Z,27.80
2018-08-16T14:55:03.229Z,27.40
2018-08-16T14:57:31.977Z,27.30
2018-08-16T15:00:00.791Z,27.70
2018-08-16T15:02:29.507Z,27.80
2018-08-16T15:04:58.407Z,27.90
2018-08-16T15:07:27.206Z,27.80
2018-08-16T15:09:56.080Z,27.60
2018-08-16T15:12:25.035Z,27.80
2018-08-16T15:14:54.011Z,27.90
2018-08-16T15:17:23.073Z,28.20
2018-08-16T15:19:51.829Z,27.90
2018-08-16T15:22:20.678Z,27.80
2018-08-16T15:24:50.502Z,27.90
2018-08-16T15:27:19.272Z,28.10
2018-08-16T15:29:48.055Z,28.10
2018-08-16T15:32:17.366Z,28.30
2018-08-16T15:34:46.500Z,28.20
2018-08-16T15:37:15.286Z,28.10
2018-08-16T15:39:44.189Z,27.90
2018-08-16T15:42:13.050Z,27.70
2018-08-16T15:44:41.862Z,27.50
2018-08-16T15:47:10.558Z,27.20
2018-08-16T15:49:39.398Z,27.40
2018-08-16T15:52:08.665Z,27.40
2018-08-16T15:54:38.253Z,27.30
2018-08-16T15:57:06.938Z,27.20
2018-08-16T15:59:35.766Z,27.20
2018-08-16T16:02:04.421Z,27.10
2018-08-16T16:04:33.186Z,27.00
2018-08-16T16:07:02.011Z,27.00
2018-08-16T16:09:35.547Z,27.10
2018-08-16T16:12:04.341Z,27.10
2018-08-16T16:14:33.326Z,27.30
2018-08-16T16:17:02.210Z,27.20
2018-08-16T16:19:31.052Z,27.10
2018-08-16T16:22:00.214Z,27.00
2018-08-16T16:24:28.941Z,26.90
2018-08-16T16:26:57.842Z,26.70
2018-08-16T16:29:26.725Z,27.00
2018-08-16T16:31:55.979Z,27.20
2018-08-16T16:34:24.973Z,27.00
2018-08-16T16:36:53.809Z,26.90
2018-08-16T16:39:22.541Z,26.90
2018-08-16T16:41:51.369Z,27.00
2018-08-16T16:44:20.473Z,26.90
2018-08-16T16:46:49.086Z,26.80
2018-08-16T16:49:21.808Z,26.60
2018-08-16T16:51:50.706Z,26.50
2018-08-16T16:54:20.222Z,26.50
2018-08-16T16:56:48.993Z,26.50
2018-08-16T16:59:17.891Z,26.60
2018-08-16T17:01:46.449Z,26.50
2018-08-16T17:04:15.418Z,26.60
2018-08-16T17:06:44.403Z,26.60
2018-08-16T17:09:15.366Z,26.50
2018-08-16T17:11:44.732Z,26.40
2018-08-16T17:14:13.638Z,26.40
2018-08-16T17:16:42.435Z,26.40
2018-08-16T17:19:12.274Z,26.40
2018-08-16T17:21:41.076Z,26.30
2018-08-16T17:24:09.833Z,26.20
2018-08-16T17:26:38.730Z,26.00
2018-08-16T17:29:07.685Z,25.90
2018-08-16T17:31:36.580Z,25.90
2018-08-16T17:34:06.277Z,25.70
2018-08-16T17:36:35.314Z,25.50
2018-08-16T17:39:05.616Z,25.60
2018-08-16T17:41:34.465Z,25.60
2018-08-16T17:44:03.263Z,25.60
2018-08-16T17:46:31.991Z,25.50
2018-08-16T17:49:01.803Z,25.40
2018-08-16T17:51:30.603Z,25.30
2018-08-16T17:53:59.409Z,25.30
2018-08-16T17:56:28.141Z,25.30
2018-08-16T17:58:58.734Z,25.20
2018-08-16T18:01:27.721Z,25.20
2018-08-16T18:04:02.445Z,25.10
2018-08-16T18:06:31.919Z,25.10
2018-08-16T18:09:01.573Z,25.10
2018-08-16T18:11:30.131Z,25.20
2018-08-16T18:13:58.751Z,25.00
2018-08-16T18:16:27.799Z,24.90
2018-08-16T18:18:56.718Z,24.90
2018-08-16T18:21:25.553Z,24.90
2018-08-16T18:23:54.682Z,24.90
2018-08-16T18:26:27.294Z,24.80
2018-08-16T18:28:56.469Z,24.70
2018-08-16T18:31:27.578Z,24.70
2018-08-16T18:33:57.562Z,24.60
2018-08-16T18:36:26.322Z,24.60
2018-08-16T18:38:55.366Z,24.40
2018-08-16T18:41:24.100Z,24.30
2018-08-16T18:43:52.825Z,24.30
2018-08-16T18:46:21.617Z,24.20
2018-08-16T18:48:50.667Z,24.10
2018-08-16T18:51:19.482Z,23.90
2018-08-16T18:53:48.375Z,24.00
2018-08-16T18:56:17.093Z,23.90
2018-08-16T18:58:45.929Z,23.90
2018-08-16T19:01:14.685Z,23.90
2018-08-16T19:03:43.433Z,23.90
2018-08-16T19:06:12.293Z,23.70
2018-08-16T19:08:41.137Z,23.70
2018-08-16T19:11:09.868Z,23.80
2018-08-16T19:13:38.689Z,23.70
2018-08-16T19:16:07.630Z,23.50
2018-08-16T19:18:36.608Z,23.40
2018-08-16T19:21:05.828Z,23.40
2018-08-16T19:23:34.602Z,23.20
2018-08-16T19:26:03.895Z,23.10
2018-08-16T19:28:32.681Z,23.10
2018-08-16T19:31:02.071Z,23.00
2018-08-16T19:33:31.228Z,22.90
2018-08-16T19:35:59.989Z,22.80
2018-08-16T19:38:28.945Z,22.70
2018-08-16T19:40:58.075Z,22.60
2018-08-16T19:43:26.831Z,22.60
2018-08-16T19:45:55.625Z,22.50
2018-08-16T19:48:24.991Z,22.40
2018-08-16T19:50:53.893Z,22.40
2018-08-16T19:53:22.593Z,22.30
2018-08-16T19:55:51.354Z,22.30
2018-08-16T19:58:20.106Z,22.20
2018-08-16T20:00:48.811Z,22.10
2018-08-16T20:03:17.683Z,22.00
2018-08-16T20:05:46.467Z,22.00
2018-08-16T20:08:15.213Z,21.90
2018-08-16T20:10:44.226Z,21.80
2018-08-16T20:13:12.988Z,21.80
2018-08-16T20:15:41.665Z,21.70
2018-08-16T20:18:10.524Z,21.70
2018-08-16T20:20:39.301Z,21.60
2018-08-16T20:23:08.054Z,21.50
2018-08-16T20:25:37.538Z,21.50
2018-08-16T20:28:06.557Z,21.40
2018-08-16T20:30:35.421Z,21.40
2018-08-16T20:33:04.213Z,21.30
2018-08-16T20:35:32.917Z,21.10
2018-08-16T20:38:01.998Z,20.90
2018-08-16T20:40:30.778Z,20.80
2018-08-16T20:42:59.618Z,20.80
2018-08-16T20:45:28.421Z,20.80
2018-08-16T20:47:57.676Z,20.80
2018-08-16T20:50:26.918Z,20.80
2018-08-16T20:52:56.193Z,20.70
2018-08-16T20:55:25.022Z,20.60
2018-08-16T20:57:53.706Z,20.40
2018-08-16T21:00:22.481Z,20.30
2018-08-16T21:02:51.181Z,20.30
2018-08-16T21:05:20.058Z,20.20
2018-08-16T21:07:48.929Z,20.20
2018-08-16T21:10:17.885Z,20.10
2018-08-16T21:12:46.572Z,20.10
2018-08-16T21:15:15.417Z,19.90
2018-08-16T21:17:44.413Z,19.80
2018-08-16T21:20:13.289Z,19.80
2018-08-16T21:22:42.250Z,19.90
2018-08-16T21:25:11.455Z,19.90
2018-08-16T21:27:40.329Z,19.90
2018-08-16T21:30:09.654Z,19.90
2018-08-16T21:32:38.409Z,19.90
2018-08-16T21:35:07.688Z,19.80
2018-08-16T21:37:36.547Z,19.80
2018-08-16T21:40:06.317Z,19.80
2018-08-16T21:42:35.133Z,19.70
2018-08-16T21:45:03.909Z,19.70
2018-08-16T21:47:32.886Z,19.60
2018-08-16T21:50:01.693Z,19.60
2018-08-16T21:52:30.452Z,19.40
2018-08-16T21:54:59.252Z,19.20
2018-08-16T21:57:28.908Z,19.20
2018-08-16T21:59:57.569Z,19.10
2018-08-16T22:02:26.461Z,19.10
2018-08-16T22:04:55.262Z,19.10
2018-08-16T22:09:31.554Z,19.20
2018-08-16T22:12:00.649Z,19.20
2018-08-16T22:14:29.452Z,19.00
2018-08-16T22:16:58.144Z,19.00
2018-08-16T22:19:26.933Z,19.00
2018-08-16T22:21:55.802Z,19.10
2018-08-16T22:24:24.741Z,19.10
2018-08-16T22:26:53.567Z,19.00
2018-08-16T22:29:22.280Z,18.90
2018-08-16T22:31:51.077Z,18.90
2018-08-16T22:34:19.836Z,18.80
2018-08-16T22:36:48.475Z,18.80
2018-08-16T22:39:17.446Z,18.70
2018-08-16T22:41:46.439Z,18.60
2018-08-16T22:44:15.182Z,18.50
2018-08-16T22:46:43.999Z,18.40
2018-08-16T22:49:12.778Z,18.30
2018-08-16T22:51:41.593Z,18.20
2018-08-16T22:54:10.537Z,18.30
2018-08-16T22:56:39.223Z,18.40
2018-08-16T22:59:08.078Z,18.40
2018-08-16T23:01:37.066Z,18.40
2018-08-16T23:04:05.964Z,18.30
2018-08-16T23:06:35.054Z,18.30
2018-08-16T23:09:04.221Z,18.10
2018-08-16T23:11:33.062Z,18.10
2018-08-16T23:14:01.825Z,18.00
2018-08-16T23:16:30.569Z,18.00
2018-08-16T23:18:59.262Z,18.00
2018-08-16T23:21:28.123Z,18.00
2018-08-16T23:23:56.851Z,18.00
2018-08-16T23:26:25.895Z,18.10
2018-08-16T23:28:54.817Z,18.00
2018-08-16T23:31:23.585Z,17.90
2018-08-16T23:33:52.778Z,17.90
2018-08-16T23:36:21.605Z,17.90
2018-08-16T23:38:50.980Z,17.80
2018-08-16T23:41:19.855Z,17.70
2018-08-16T23:43:48.701Z,17.70
2018-08-16T23:46:17.474Z,17.60
2018-08-16T23:48:46.314Z,17.60
2018-08-16T23:51:15.558Z,17.50
2018-08-16T23:53:44.457Z,17.60
2018-08-16T23:56:13.229Z,17.60
2018-08-16T23:58:41.994Z,17.60
